• Join FlightAware (Why Join?)
  • Login
  • US Flag 
02:07AM EST


 

Airport Tracker/Info


-or-


 

Live Flight TrackerFlight Track Log ✈ EJA987 ✈ 2013年06月30日 ✈ KISM - KMIA

Flight Track Log - Related Links

Times and Time Zones

All times are in EDT time to prevent confusion due to time zone crossing. See the EJA987 flight status page for this flight to view local times or setup timezone preferences in your user account.

Time Position Orientation Groundspeed Altitude Reporting Facility
EDT Latitude Longitude Course Direction KTS MPH feet Rate Location/Type
03:11PM 28.2833 -81.4333 124° Southeast 174 200 800  Level Orlando TRACON
03:13PM 28.2333 -81.3500 124° Southeast 223 257 2,000 480 Climbing Orlando TRACON
03:14PM 28.2500 -81.2500 79° East 227 261 2,100 1,500 Climbing Orlando TRACON
03:16PM 28.2186 -81.1236 106° East 289 333 6,600 2,640 Climbing Miami Center
03:17PM 28.1878 -81.0331 111° Southeast 289 333 9,400 2,460 Climbing Miami Center
03:18PM 28.1464 -80.9514 120° Southeast 298 343 11,600 2,040 Climbing Miami Center
03:19PM 28.0814 -80.8878 139° Southeast 324 373 13,500 1,980 Climbing Miami Center
03:20PM 27.9981 -80.8097 140° Southeast 345 397 15,600 2,280 Climbing Miami Center
03:21PM 27.9119 -80.7456 147° Southeast 451 519 18,100 1,680 Climbing Miami Center
03:22PM 27.8383 -80.6939 148° Southeast 422 486 19,000 420 Climbing Miami Center
03:23PM 27.7317 -80.6175 148° Southeast 399 459 19,000  Level Miami Center
03:24PM 27.6272 -80.5414 147° Southeast 428 493 19,000  Level Miami Center
03:25PM 27.5225 -80.4700 149° Southeast 443 510 19,000  Level Miami Center
03:26PM 27.4386 -80.4089 147° Southeast 421 484 19,000  Level Miami Center
03:27PM 27.3564 -80.3503 148° Southeast 375 432 19,000  Level Miami Center
03:28PM 27.2700 -80.2917 149° Southeast 342 394 19,000  Level Miami Center
03:29PM 27.1881 -80.2333 148° Southeast 342 394 19,000  Level Miami Center
03:30PM 27.1078 -80.1750 147° Southeast 342 394 19,000  Level Miami Center
03:31PM 27.0297 -80.1236 150° Southeast 352 405 19,000  Level Miami Center
03:32PM 26.9389 -80.0744 154° Southeast 364 419 19,000  Level Miami Center
03:33PM 26.8444 -79.9975 144° Southeast 378 435 19,000 -180 Level Miami Center
03:34PM 26.7556 -79.9556 157° South 383 441 18,700 -900 Descending Miami Center
03:35PM 26.6428 -79.9642 184° South 375 432 17,300 -1,740 Descending Miami Center
03:35PM 26.5692 -79.9761 188° South 359 413 15,800 -2,460 Descending Miami Center
03:36PM 26.4758 -79.9528 167° South 340 391 13,100 -1,500 Descending Miami Center
03:37PM 26.3858 -79.9619 185° South 325 374 12,800 -1,020 Descending Miami Center
03:39PM 26.2806 -80.0033 199° South 319 367 10,800 -1,260 Descending Miami Center
03:40PM 26.1983 -80.0311 197° South 312 359 10,000 -480 Descending Miami Center
03:41PM 26.1186 -80.0522 193° South 315 362 10,000 -180 Level Miami Center
03:42PM 26.0386 -80.0756 195° South 319 367 9,700 -780 Descending Miami Center
03:42PM 25.9778 -80.0925 194° South 228 262 8,500 -900 Descending Miami Center
03:44PM 25.9328 -80.1419 225° Southwest 232 267 8,000 -300 Descending Miami Center
03:45PM 25.9061 -80.2106 247° West 240 276 8,000 -540 Level Miami Center
03:46PM 25.8839 -80.2722 248° West 221 254 7,100 -1,560 Descending Miami Center
03:47PM 25.8781 -80.3461 265° West 220 253 4,900 -1,560 Descending Miami Center
03:48PM 25.8742 -80.4128 266° West 219 252 4,000 -660 Descending Miami Center
03:49PM 25.8642 -80.4794 261° West 216 249 3,600 -1,140 Descending Miami Center
03:50PM 25.8017 -80.4731 175° South 204 235 1,600 -1,020 Descending Miami Center
03:51PM 25.7967 -80.4244 97° East 169 194 1,500 -240 Descending Miami Center
03:52PM 25.7958 -80.3714 91° East 142 163 1,200 -480 Descending Miami Center
03:53PM 25.8011 -80.3253 83° East 140 161 500 -720 Descending Miami Center
03:55PM 25.7954 -80.2901 103° East  Level Estimated
04:02PM 25.7954 -80.2901 103° East  Level Estimated